S7 E170 at Perm on Apr 20th 2021, hard touchdown

Last Update: April 26, 2021 / 18:25:08 GMT/Zulu time

Bookmark this article
Incident Facts

Date of incident
Apr 20, 2021

Classification
Incident

Flight number
S7-5039

Destination
Perm, Russia

Aircraft Registration
VQ-BBO

Aircraft Type
Embraer ERJ-170

ICAO Type Designator
E170

Airport ICAO Code
USPP

A S7 Sibir Airlines Embraer ERJ-170, registration VQ-BBO performing flight S7-5039 from Novosibirsk to Perm (Russia), landed on Perm's runway 21 but touched down hard. The aircraft rolled out without further incident and taxied to the apron.

The aircraft also performed the return flight S7-5040 on schedule and landed in Novosibirsk without further incident about 2.5 hours after departure.

Rosaviatsia reported decoding of the QAR data revealed the aircraft touched down in Perm with a vertical acceleration of +2.48G, which exceeded permitted limits. The aircraft was removed from service for checks and repairs. Following the works the aircraft was permitted to return to service.

The aircraft remained on the ground in Novosibirsk for about 18.5 hours before returning to service.

Metars:
USPP 201230Z 29003MPS 240V350 CAVOK 12/M13 Q1031 R21/090060 NOSIG RMK QFE762=
USPP 201200Z 26002MPS CAVOK 11/M12 Q1031 R21/090060 NOSIG RMK QFE762=
USPP 201130Z 30004MPS 260V350 CAVOK 11/M11 Q1031 R21/090060 NOSIG RMK QFE762=
USPP 201100Z 29002MPS CAVOK 11/M13 Q1032 R21/090060 NOSIG RMK QFE763=
USPP 201030Z 29003MPS CAVOK 10/M12 Q1032 R21/090060 NOSIG RMK QFE763=
USPP 201000Z 28004G10MPS CAVOK 11/M12 Q1032 R21/090060 NOSIG RMK QFE763=
USPP 200930Z 31003MPS CAVOK 10/M12 Q1032 R21/090060 NOSIG RMK QFE763=
USPP 200900Z 31003MPS CAVOK 09/M13 Q1033 R21/090060 NOSIG RMK QFE763=
USPP 200830Z 29003MPS 220V360 CAVOK 09/M13 Q1033 R03/090060 NOSIG RMK QFE764=
Incident Facts

Date of incident
Apr 20, 2021

Classification
Incident

Flight number
S7-5039

Destination
Perm, Russia

Aircraft Registration
VQ-BBO

Aircraft Type
Embraer ERJ-170

ICAO Type Designator
E170

Airport ICAO Code
USPP

This article is published under license from Avherald.com. © of text by Avherald.com.
Article source

You can read 2 more free articles without a subscription.

Subscribe now and continue reading without any limits!

Are you a subscriber? Login
Subscribe

Read unlimited articles and receive our daily update briefing. Gain better insights into what is happening in commercial aviation safety.

Free newsletter

Want to know more and stay ahead? Get our free weekly newsletter and join 5377 existing subscribers.

By subscribing, you accept our terms and conditions and confirm that you've read our privacy policy.

Send tip

Support AeroInside by sending a small tip amount.

Related articles

Newest articles

Subscribe today

Are you researching aviation incidents? Get access to AeroInside Insights, unlimited read access and receive the daily newsletter.

Pick your plan and subscribe

Partner

Blockaviation logo

A new way to document and demonstrate airworthiness compliance and aircraft value. Find out more.

Virtual Speech logo

ELITE Simulation Solutions is a leading global provider of Flight Simulation Training Devices, IFR training software as well as flight controls and related services. Find out more.

Get updates

Never miss an article from AeroInside. Subscribe to our free weekly newsletter and join 5377 existing subscribers.

By subscribing, you accept our terms and conditions and that you've read our privacy policy.

AeroInside Blog
Popular aircraft
Airbus A320
Boeing 737-800
Boeing 737-800 MAX
Popular airlines
American Airlines
United
Delta
Air Canada
Lufthansa
British Airways